Time;durP1;ratioP1;P1;durP2;ratioP2;P2;SDS_P1;SDS_P2;PMS_P1;PMS_P2;Temp;Humidity;BMP_temperature;BMP_pressure;BME280_temperature;BME280_humidity;BME280_pressure;Samples;Min_cycle;Max_cycle;Signal;HPM_P1;HPM_P2
2023/04/20 00:00:16;;;;;;;4.73;3.50;;;6.60;1.00;;;;;;5098400;28;20198;-80
2023/04/20 00:02:42;;;;;;;4.97;3.63;;;6.60;1.00;;;;;;5096531;28;20648;-80
2023/04/20 00:05:09;;;;;;;5.80;3.70;;;6.50;1.00;;;;;;5097514;28;20201;-80
2023/04/20 00:07:40;;;;;;;4.97;3.50;;;6.60;1.00;;;;;;5098650;28;20642;-80
2023/04/20 00:10:07;;;;;;;5.37;3.43;;;6.60;1.00;;;;;;5098815;28;20172;-80
2023/04/20 00:12:33;;;;;;;4.50;3.63;;;6.60;1.00;;;;;;5098970;28;20259;-80
2023/04/20 00:14:58;;;;;;;5.73;3.87;;;6.50;1.80;;;;;;5099638;28;20237;-80
2023/04/20 00:17:24;;;;;;;5.10;3.90;;;6.50;99.90;;;;;;5098613;28;20174;-80
2023/04/20 00:19:50;;;;;;;4.03;3.57;;;6.30;99.90;;;;;;5097579;28;20189;-79
2023/04/20 00:22:15;;;;;;;5.50;3.57;;;6.20;1.00;;;;;;5099783;28;20186;-79
2023/04/20 00:24:41;;;;;;;8.17;4.00;;;6.00;16.60;;;;;;5098104;28;20262;-80
2023/04/20 00:27:06;;;;;;;6.37;4.30;;;6.00;99.90;;;;;;5099576;28;20173;-81
2023/04/20 00:29:32;;;;;;;5.53;3.47;;;6.00;99.90;;;;;;5099168;28;20205;-80
2023/04/20 00:31:58;;;;;;;6.17;3.70;;;6.00;1.00;;;;;;5097353;28;20263;-81
2023/04/20 00:34:23;;;;;;;5.13;3.80;;;5.80;1.00;;;;;;5097549;28;20189;-80
2023/04/20 00:36:49;;;;;;;7.07;3.80;;;5.80;92.80;;;;;;5098310;28;20583;-80
2023/04/20 00:39:15;;;;;;;5.63;3.80;;;5.90;99.90;;;;;;5099849;28;20177;-80
2023/04/20 00:41:40;;;;;;;5.53;4.20;;;5.80;99.90;;;;;;5098811;28;20178;-81
2023/04/20 00:44:07;;;;;;;4.60;3.67;;;5.70;1.00;;;;;;5097286;28;20217;-80
2023/04/20 00:46:32;;;;;;;5.30;4.07;;;5.70;34.40;;;;;;5099206;28;20182;-79
2023/04/20 00:48:59;;;;;;;6.07;3.70;;;5.70;1.00;;;;;;5100767;28;20319;-80
2023/04/20 00:51:27;;;;;;;7.80;4.00;;;5.70;99.90;;;;;;5100842;28;20173;-81
2023/04/20 00:53:53;;;;;;;5.13;4.40;;;5.70;99.90;;;;;;5098610;28;20243;-80
2023/04/20 00:56:18;;;;;;;5.07;3.93;;;5.80;1.00;;;;;;5100785;28;20180;-81
2023/04/20 00:58:45;;;;;;;5.27;4.00;;;5.90;99.90;;;;;;5100246;28;20208;-81
2023/04/20 01:01:11;;;;;;;5.83;3.83;;;6.00;99.90;;;;;;5101089;28;20182;-80
2023/04/20 01:03:38;;;;;;;6.43;3.73;;;6.00;1.00;;;;;;5100073;28;20187;-80
2023/04/20 01:06:05;;;;;;;7.30;4.23;;;6.00;1.00;;;;;;5100475;28;20200;-82
2023/04/20 01:08:31;;;;;;;6.97;4.07;;;5.90;1.00;;;;;;5102151;28;20338;-81
2023/04/20 01:10:56;;;;;;;4.63;4.07;;;5.90;1.00;;;;;;5100644;28;20195;-81
2023/04/20 01:13:22;;;;;;;6.73;4.27;;;5.90;74.10;;;;;;5101395;28;20198;-80
2023/04/20 01:15:48;;;;;;;6.67;4.13;;;5.80;99.90;;;;;;5092218;28;20196;-80
2023/04/20 01:18:16;;;;;;;6.50;4.33;;;5.90;96.60;;;;;;5084109;28;20199;-80
2023/04/20 01:20:42;;;;;;;6.13;4.43;;;5.80;1.00;;;;;;5083469;28;20168;-81
2023/04/20 01:23:08;;;;;;;5.57;4.40;;;5.70;1.00;;;;;;5084071;28;20182;-80
2023/04/20 01:25:34;;;;;;;7.53;4.37;;;5.70;1.00;;;;;;5081865;28;20195;-80
2023/04/20 01:28:00;;;;;;;6.83;4.50;;;5.60;1.00;;;;;;5082268;28;20740;-81
2023/04/20 01:30:26;;;;;;;8.07;5.23;;;5.50;1.00;;;;;;5083565;28;20192;-81
2023/04/20 01:32:52;;;;;;;6.43;4.50;;;5.50;1.00;;;;;;5085231;28;20172;-81
2023/04/20 01:35:17;;;;;;;7.37;4.47;;;5.50;1.00;;;;;;5084888;28;20198;-82
2023/04/20 01:37:43;;;;;;;6.67;4.77;;;5.60;1.00;;;;;;5084913;28;20180;-81
2023/04/20 01:40:10;;;;;;;7.40;4.53;;;5.60;1.00;;;;;;5085740;28;20248;-81
2023/04/20 01:42:36;;;;;;;7.17;5.07;;;5.70;99.90;;;;;;5086734;28;20187;-82
2023/04/20 01:45:05;;;;;;;6.20;4.60;;;5.60;1.00;;;;;;5088882;28;20211;-82
2023/04/20 01:47:31;;;;;;;8.70;4.80;;;5.60;1.00;;;;;;5076517;28;20683;-80
2023/04/20 01:49:56;;;;;;;7.17;5.30;;;5.60;1.00;;;;;;5073096;28;20166;-80
2023/04/20 01:52:22;;;;;;;9.30;5.80;;;5.50;1.00;;;;;;5073636;28;20224;-82
2023/04/20 01:54:47;;;;;;;8.93;5.70;;;5.60;1.00;;;;;;5072996;28;20199;-80
2023/04/20 01:57:13;;;;;;;7.13;5.17;;;5.50;1.00;;;;;;5074523;28;20261;-80
2023/04/20 01:59:38;;;;;;;8.30;5.70;;;5.50;1.00;;;;;;5072815;28;20273;-81
2023/04/20 02:02:04;;;;;;;9.97;5.97;;;5.40;1.00;;;;;;5073241;28;20169;-80
2023/04/20 02:04:30;;;;;;;10.87;6.93;;;5.40;6.60;;;;;;5074576;28;20190;-80
2023/04/20 02:06:55;;;;;;;10.10;6.77;;;5.30;1.00;;;;;;5074153;28;20175;-81
2023/04/20 02:09:21;;;;;;;10.03;7.30;;;5.00;1.00;;;;;;5072963;28;20169;-81
2023/04/20 02:11:46;;;;;;;9.87;7.60;;;5.00;99.90;;;;;;5072862;28;20169;-81
2023/04/20 02:14:12;;;;;;;11.67;8.03;;;5.00;99.90;;;;;;5074202;28;20203;-81
2023/04/20 02:16:37;;;;;;;10.27;7.73;;;5.00;99.90;;;;;;5074638;28;20170;-80
2023/04/20 02:19:03;;;;;;;9.70;7.57;;;5.00;99.90;;;;;;5074370;28;20178;-81
2023/04/20 02:21:28;;;;;;;9.60;7.10;;;5.00;99.90;;;;;;5072792;28;20183;-81
2023/04/20 02:23:54;;;;;;;10.87;7.40;;;5.00;99.90;;;;;;5072622;28;20197;-80
2023/04/20 02:26:20;;;;;;;10.80;7.60;;;4.90;99.90;;;;;;5074131;28;20663;-81
2023/04/20 02:28:45;;;;;;;13.47;8.67;;;4.90;99.90;;;;;;5073041;28;20201;-80
2023/04/20 02:31:11;;;;;;;11.43;8.10;;;4.80;99.90;;;;;;5072684;28;20178;-81
2023/04/20 02:33:36;;;;;;;10.80;7.67;;;4.80;99.90;;;;;;5074061;28;20568;-81
2023/04/20 02:36:02;;;;;;;11.40;8.07;;;4.90;99.90;;;;;;5073410;28;20219;-81
2023/04/20 02:38:28;;;;;;;11.13;7.83;;;4.90;99.90;;;;;;5074316;28;20189;-81
2023/04/20 02:40:53;;;;;;;9.77;7.50;;;4.90;99.90;;;;;;5072659;28;20172;-81
2023/04/20 02:43:19;;;;;;;10.20;7.60;;;5.00;99.90;;;;;;5074404;28;20184;-81
2023/04/20 02:45:45;;;;;;;9.67;7.53;;;5.00;99.90;;;;;;5074318;28;20300;-81
2023/04/20 02:48:10;;;;;;;9.67;7.20;;;4.90;99.90;;;;;;5072715;28;20219;-81
2023/04/20 02:50:37;;;;;;;10.07;7.47;;;4.90;99.90;;;;;;5073673;28;20169;-80
2023/04/20 02:53:03;;;;;;;8.43;6.67;;;4.90;99.90;;;;;;5073308;28;20169;-82
2023/04/20 02:55:28;;;;;;;8.73;7.10;;;4.80;99.90;;;;;;5074214;28;20197;-81
2023/04/20 02:57:54;;;;;;;9.03;6.90;;;4.70;99.90;;;;;;5074414;28;20177;-81
2023/04/20 03:00:20;;;;;;;11.87;6.70;;;4.50;99.90;;;;;;5074643;28;20197;-81
2023/04/20 03:02:45;;;;;;;11.07;7.10;;;4.70;99.90;;;;;;5073240;28;20235;-81
2023/04/20 03:05:11;;;;;;;8.97;6.20;;;4.70;99.90;;;;;;5075283;28;20193;-82
2023/04/20 03:07:36;;;;;;;7.80;6.07;;;4.70;99.90;;;;;;5074169;28;20230;-81
2023/04/20 03:10:03;;;;;;;7.73;5.77;;;4.70;99.90;;;;;;5077481;28;20165;-81
2023/04/20 03:12:30;;;;;;;8.80;6.20;;;4.80;99.90;;;;;;5077802;28;20199;-81
2023/04/20 03:14:56;;;;;;;8.30;6.30;;;4.80;99.90;;;;;;5077593;28;20196;-81
2023/04/20 03:17:21;;;;;;;8.00;6.10;;;4.60;99.90;;;;;;5077726;28;20207;-81
2023/04/20 03:19:47;;;;;;;8.20;6.00;;;4.70;99.90;;;;;;5077655;28;20195;-81
2023/04/20 03:22:12;;;;;;;7.40;6.03;;;4.70;99.90;;;;;;5077959;28;20180;-81
2023/04/20 03:24:38;;;;;;;8.93;6.13;;;4.70;99.90;;;;;;5077362;28;20542;-81
2023/04/20 03:27:04;;;;;;;7.50;6.10;;;4.70;99.90;;;;;;5077516;28;20188;-82
2023/04/20 03:29:29;;;;;;;7.73;5.60;;;4.70;99.90;;;;;;5079957;28;20189;-81
2023/04/20 03:31:55;;;;;;;7.17;6.07;;;4.70;99.90;;;;;;5077946;28;20184;-81
2023/04/20 03:34:20;;;;;;;7.00;5.60;;;4.70;99.90;;;;;;5079716;28;20189;-81
2023/04/20 03:36:46;;;;;;;9.03;5.77;;;4.60;99.90;;;;;;5080146;28;20176;-81
2023/04/20 03:39:11;;;;;;;8.50;5.97;;;4.60;99.90;;;;;;5078959;28;20177;-81
2023/04/20 03:41:37;;;;;;;7.00;5.20;;;4.60;99.90;;;;;;5080174;28;20173;-81
2023/04/20 03:44:03;;;;;;;7.10;5.43;;;4.70;99.90;;;;;;5078749;28;20217;-81
2023/04/20 03:46:28;;;;;;;6.73;5.37;;;4.70;99.90;;;;;;5079192;28;20177;-80
2023/04/20 03:48:54;;;;;;;8.00;5.43;;;4.80;99.90;;;;;;5078624;28;20285;-81
2023/04/20 03:51:19;;;;;;;6.37;5.03;;;4.80;99.90;;;;;;5079039;28;20177;-81
2023/04/20 03:53:45;;;;;;;8.17;4.80;;;4.80;99.90;;;;;;5079424;28;20177;-82
2023/04/20 03:56:11;;;;;;;6.53;4.97;;;4.90;99.90;;;;;;5078993;28;20652;-81
2023/04/20 03:58:36;;;;;;;6.73;5.40;;;4.80;99.90;;;;;;5079348;28;20212;-81
2023/04/20 04:01:06;;;;;;;6.17;4.90;;;4.80;99.90;;;;;;5081526;28;20177;-81
2023/04/20 04:03:32;;;;;;;6.43;4.80;;;4.80;99.90;;;;;;5082017;28;20247;-80
2023/04/20 04:05:58;;;;;;;5.17;4.67;;;4.80;99.90;;;;;;5080578;28;20182;-81
2023/04/20 04:08:24;;;;;;;5.27;4.53;;;4.80;99.90;;;;;;5082885;28;20211;-81
2023/04/20 04:10:49;;;;;;;6.00;5.13;;;4.80;99.90;;;;;;5081210;28;20183;-81
2023/04/20 04:13:15;;;;;;;6.30;4.60;;;4.80;99.90;;;;;;5083231;28;20582;-81
2023/04/20 04:15:41;;;;;;;5.97;4.83;;;4.70;99.90;;;;;;5088631;28;20212;-81
2023/04/20 04:18:06;;;;;;;8.03;4.90;;;4.70;99.90;;;;;;5091486;28;20213;-81
2023/04/20 04:20:32;;;;;;;5.83;4.97;;;4.70;99.90;;;;;;5091110;28;20173;-81
2023/04/20 04:22:57;;;;;;;5.80;4.83;;;4.70;99.90;;;;;;5104066;28;20172;-81
2023/04/20 04:25:23;;;;;;;6.50;4.53;;;4.80;99.90;;;;;;5103027;28;20237;-81
2023/04/20 04:27:49;;;;;;;6.33;5.03;;;4.80;99.90;;;;;;5104154;28;20196;-82
2023/04/20 04:30:16;;;;;;;5.60;4.43;;;4.70;99.90;;;;;;5102803;28;20168;-81
2023/04/20 04:32:43;;;;;;;6.13;4.70;;;4.70;99.90;;;;;;5105445;28;20177;-81
2023/04/20 04:35:09;;;;;;;6.47;4.73;;;4.60;99.90;;;;;;5105871;28;20188;-82
2023/04/20 04:37:35;;;;;;;4.90;4.37;;;4.60;99.90;;;;;;5101338;28;20272;-82
2023/04/20 04:40:01;;;;;;;6.33;4.43;;;4.70;99.90;;;;;;5089098;28;20177;-82
2023/04/20 04:42:27;;;;;;;4.70;4.20;;;4.70;99.90;;;;;;5076917;28;20176;-82
2023/04/20 04:44:55;;;;;;;4.70;4.13;;;4.60;99.90;;;;;;5107242;22;20217;-81
2023/04/20 04:47:21;;;;;;;4.63;4.20;;;4.60;99.90;;;;;;5098432;28;20169;-80
2023/04/20 04:49:47;;;;;;;5.50;3.90;;;4.50;99.90;;;;;;5097828;28;20259;-79
2023/04/20 04:52:13;;;;;;;6.20;4.60;;;4.50;99.90;;;;;;5096508;28;20184;-79
2023/04/20 04:54:39;;;;;;;5.73;4.13;;;4.50;99.90;;;;;;5094168;28;20192;-81
2023/04/20 04:57:04;;;;;;;5.33;4.40;;;4.60;99.90;;;;;;5096407;28;20168;-80
2023/04/20 04:59:30;;;;;;;4.87;3.87;;;4.60;99.90;;;;;;5095585;28;20168;-80
2023/04/20 05:01:56;;;;;;;4.07;3.60;;;4.70;99.90;;;;;;5095408;28;20223;-82
2023/04/20 05:04:21;;;;;;;4.80;4.03;;;4.70;99.90;;;;;;5094479;28;20203;-80
2023/04/20 05:06:47;;;;;;;4.63;4.03;;;4.80;99.90;;;;;;5101908;28;20623;-82
2023/04/20 05:09:12;;;;;;;4.03;3.50;;;4.80;99.90;;;;;;5112238;28;20606;-81
2023/04/20 05:11:38;;;;;;;4.90;4.00;;;4.80;99.90;;;;;;5114846;28;20233;-81
2023/04/20 05:14:03;;;;;;;4.80;4.30;;;4.70;99.90;;;;;;5114844;28;20196;-82
2023/04/20 05:16:29;;;;;;;5.60;3.70;;;4.70;99.90;;;;;;5114468;28;20192;-81
2023/04/20 05:18:54;;;;;;;4.30;3.90;;;4.60;99.90;;;;;;5114780;28;20265;-81
2023/04/20 05:21:20;;;;;;;5.03;4.30;;;4.70;99.90;;;;;;5113612;28;20171;-81
2023/04/20 05:23:46;;;;;;;4.10;3.60;;;4.70;99.90;;;;;;5115762;28;20188;-81
2023/04/20 05:26:11;;;;;;;4.47;3.53;;;4.60;99.90;;;;;;5114224;28;20216;-83
2023/04/20 05:28:37;;;;;;;4.20;3.63;;;4.60;99.90;;;;;;5114425;28;20200;-83
2023/04/20 05:31:02;;;;;;;4.00;3.50;;;4.60;99.90;;;;;;5116071;28;20167;-79
2023/04/20 05:33:28;;;;;;;4.20;3.50;;;4.80;99.90;;;;;;5117338;28;20168;-79
2023/04/20 05:35:57;;;;;;;3.30;3.00;;;5.10;99.90;;;;;;5120213;28;20212;-78
2023/04/20 05:38:24;;;;;;;3.60;3.30;;;5.10;99.90;;;;;;5121930;28;20180;-79
2023/04/20 05:40:50;;;;;;;3.53;3.23;;;5.20;99.90;;;;;;5118982;28;20199;-79
2023/04/20 05:43:17;;;;;;;4.50;3.43;;;5.30;99.90;;;;;;5118630;28;20176;-80
2023/04/20 05:45:44;;;;;;;3.83;3.30;;;5.10;99.90;;;;;;5119150;28;20313;-80
2023/04/20 05:48:09;;;;;;;3.53;3.20;;;5.00;99.90;;;;;;5118945;28;20202;-81
2023/04/20 05:50:35;;;;;;;3.37;3.03;;;5.00;99.90;;;;;;5116296;28;20168;-82
2023/04/20 05:53:01;;;;;;;3.53;3.20;;;4.90;99.90;;;;;;5116034;28;20521;-83
2023/04/20 05:55:27;;;;;;;3.97;3.40;;;4.80;99.90;;;;;;5112297;28;20241;-82
2023/04/20 05:57:52;;;;;;;4.00;3.57;;;4.70;99.90;;;;;;5112311;28;20186;-82
2023/04/20 06:00:19;;;;;;;4.50;3.60;;;4.60;99.90;;;;;;5113531;28;20222;-82
2023/04/20 06:02:44;;;;;;;4.10;3.70;;;4.60;99.90;;;;;;5112213;28;20179;-81
2023/04/20 06:05:10;;;;;;;4.37;3.73;;;4.60;99.90;;;;;;5113661;28;20203;-85
2023/04/20 06:07:36;;;;;;;3.90;3.43;;;4.50;99.90;;;;;;5113482;28;20207;-81
2023/04/20 06:10:03;;;;;;;4.03;3.30;;;4.70;99.90;;;;;;5113819;28;20164;-81
2023/04/20 06:12:31;;;;;;;4.97;3.47;;;4.80;99.90;;;;;;5095566;28;20168;-81
2023/04/20 06:14:58;;;;;;;4.23;3.80;;;5.00;99.90;;;;;;5098468;28;20220;-81
2023/04/20 06:17:23;;;;;;;4.67;3.93;;;4.80;99.90;;;;;;5091032;28;20169;-81
2023/04/20 06:19:49;;;;;;;4.37;3.80;;;4.90;99.90;;;;;;5091624;28;20183;-81
2023/04/20 06:22:15;;;;;;;4.33;3.70;;;4.90;99.90;;;;;;5091528;28;20172;-81
2023/04/20 06:24:41;;;;;;;4.20;3.70;;;5.00;99.90;;;;;;5093134;28;20196;-81
2023/04/20 06:27:08;;;;;;;5.57;4.10;;;5.20;99.90;;;;;;5091633;28;20172;-81
2023/04/20 06:29:33;;;;;;;4.23;3.80;;;5.30;99.90;;;;;;5093001;28;20180;-81
2023/04/20 06:31:59;;;;;;;5.27;4.67;;;5.50;99.90;;;;;;5091552;28;20174;-81
2023/04/20 06:34:24;;;;;;;5.63;4.40;;;5.50;99.90;;;;;;5091794;28;20201;-81
2023/04/20 06:36:50;;;;;;;4.47;4.07;;;5.50;99.90;;;;;;5092553;28;20192;-81
2023/04/20 06:39:16;;;;;;;6.70;4.93;;;5.50;99.90;;;;;;5092835;28;20175;-82
2023/04/20 06:41:42;;;;;;;7.13;5.33;;;5.50;99.90;;;;;;5092635;28;20173;-81
2023/04/20 06:44:08;;;;;;;7.07;5.60;;;5.60;99.90;;;;;;5092236;28;20711;-81
2023/04/20 06:46:33;;;;;;;8.60;5.47;;;5.50;99.90;;;;;;5091486;28;20605;-81
2023/04/20 06:48:59;;;;;;;7.50;5.90;;;5.50;99.90;;;;;;5092490;28;20646;-82
2023/04/20 06:51:26;;;;;;;7.27;5.70;;;5.60;99.90;;;;;;5091248;28;20176;-81
2023/04/20 06:53:52;;;;;;;6.40;5.50;;;5.70;99.90;;;;;;5092953;28;20198;-81
2023/04/20 06:56:17;;;;;;;7.97;6.50;;;5.70;99.90;;;;;;5091675;28;20181;-81
2023/04/20 06:58:43;;;;;;;7.10;6.23;;;5.70;99.90;;;;;;5091582;28;20180;-81
2023/04/20 07:01:08;;;;;;;8.50;6.63;;;5.70;99.90;;;;;;5091041;28;20177;-81
2023/04/20 07:03:34;;;;;;;9.20;7.20;;;5.80;99.90;;;;;;5092336;28;20271;-81
2023/04/20 07:06:00;;;;;;;8.17;6.73;;;5.80;99.90;;;;;;5091186;28;20209;-81
2023/04/20 07:08:25;;;;;;;7.73;6.67;;;5.80;99.90;;;;;;5091421;28;20207;-80
2023/04/20 07:10:51;;;;;;;8.50;7.10;;;6.00;99.90;;;;;;5091318;28;20199;-81
2023/04/20 07:13:16;;;;;;;8.00;6.70;;;6.20;99.90;;;;;;5092596;28;20170;-81
2023/04/20 07:15:44;;;;;;;7.90;6.30;;;6.40;99.90;;;;;;5091110;28;20293;-81
2023/04/20 07:18:10;;;;;;;8.10;6.73;;;6.50;99.90;;;;;;5091136;28;20182;-81
2023/04/20 07:20:35;;;;;;;9.50;6.57;;;6.60;99.90;;;;;;5092072;28;20250;-81
2023/04/20 07:23:01;;;;;;;8.93;7.23;;;6.70;99.90;;;;;;5090854;28;20182;-81
2023/04/20 07:25:26;;;;;;;8.53;6.77;;;6.70;99.90;;;;;;5092219;28;20237;-81
2023/04/20 07:27:52;;;;;;;7.93;6.90;;;6.60;32.60;;;;;;5092155;28;20197;-81
2023/04/20 07:30:17;;;;;;;8.17;6.70;;;6.70;91.30;;;;;;5092533;28;20168;-81
2023/04/20 07:32:43;;;;;;;7.77;6.90;;;6.80;1.00;;;;;;5090868;28;20227;-81
2023/04/20 07:35:09;;;;;;;6.93;6.20;;;6.90;1.00;;;;;;5091285;28;20194;-81
2023/04/20 07:37:35;;;;;;;7.60;6.20;;;7.00;1.00;;;;;;5092406;28;20649;-81
2023/04/20 07:40:01;;;;;;;8.03;6.10;;;7.00;99.90;;;;;;5092296;28;20173;-81
2023/04/20 07:42:27;;;;;;;7.80;6.07;;;6.90;1.00;;;;;;5092118;28;20181;-81
2023/04/20 07:44:53;;;;;;;8.17;6.23;;;6.70;1.00;;;;;;5091082;28;20214;-81
2023/04/20 07:47:18;;;;;;;7.43;6.33;;;6.70;1.00;;;;;;5090909;28;20187;-81
2023/04/20 07:49:44;;;;;;;8.33;6.57;;;6.80;99.90;;;;;;5090813;28;20172;-81
2023/04/20 07:52:11;;;;;;;6.90;5.80;;;7.10;1.00;;;;;;5092533;28;20171;-81
2023/04/20 07:54:37;;;;;;;8.23;6.13;;;7.20;99.90;;;;;;5093163;28;20205;-81
2023/04/20 07:57:02;;;;;;;7.93;6.00;;;7.40;2.30;;;;;;5094580;28;20178;-81
2023/04/20 07:59:29;;;;;;;8.13;6.07;;;7.50;99.90;;;;;;5094785;28;20179;-81
2023/04/20 08:01:59;;;;;;;7.23;6.03;;;7.40;99.90;;;;;;5094277;28;20202;-81
2023/04/20 08:04:25;;;;;;;8.60;6.20;;;7.50;99.90;;;;;;5094977;28;20682;-81
2023/04/20 08:06:51;;;;;;;6.70;5.80;;;7.60;1.00;;;;;;5094641;28;20185;-81
2023/04/20 08:09:16;;;;;;;7.37;5.93;;;7.80;1.00;;;;;;5094530;28;20215;-81
2023/04/20 08:11:45;;;;;;;7.43;6.73;;;7.80;99.90;;;;;;5095583;28;20178;-81
2023/04/20 08:14:11;;;;;;;7.03;6.10;;;7.80;99.90;;;;;;5094720;28;20179;-80
2023/04/20 08:16:36;;;;;;;7.73;6.40;;;8.00;1.00;;;;;;5095597;28;20179;-81
2023/04/20 08:19:08;;;;;;;7.13;5.67;;;7.90;1.00;;;;;;5094459;28;20184;-81
2023/04/20 08:21:38;;;;;;;6.17;5.57;;;7.80;99.90;;;;;;5094238;28;20179;-81
2023/04/20 08:24:04;;;;;;;6.13;5.37;;;7.60;1.00;;;;;;5094069;28;20172;-81
2023/04/20 08:26:31;;;;;;;7.63;5.53;;;7.60;99.90;;;;;;5095359;28;20207;-81
2023/04/20 08:28:57;;;;;;;6.40;5.50;;;7.50;99.90;;;;;;5094450;28;20257;-81
2023/04/20 08:31:22;;;;;;;5.77;5.17;;;7.60;50.10;;;;;;5094909;28;20186;-81
2023/04/20 08:33:48;;;;;;;6.90;5.57;;;7.80;99.90;;;;;;5095466;28;20175;-81
2023/04/20 08:36:14;;;;;;;6.00;5.40;;;7.90;1.00;;;;;;5096406;28;20196;-81
2023/04/20 08:38:39;;;;;;;6.00;5.00;;;7.90;1.00;;;;;;5096485;28;20184;-81
2023/04/20 08:41:05;;;;;;;6.00;5.10;;;7.90;99.90;;;;;;5096250;28;20335;-81
2023/04/20 08:43:31;;;;;;;6.33;4.87;;;7.90;99.90;;;;;;5096247;28;20198;-81
2023/04/20 08:45:59;;;;;;;5.80;4.90;;;7.90;99.90;;;;;;5095185;28;20219;-81
2023/04/20 08:48:27;;;;;;;5.97;5.03;;;8.10;1.00;;;;;;5095325;28;20213;-81
2023/04/20 08:50:54;;;;;;;5.80;5.10;;;8.30;1.00;;;;;;5095413;28;20182;-81
2023/04/20 08:53:19;;;;;;;7.37;4.93;;;8.60;99.90;;;;;;5095870;28;20168;-81
2023/04/20 08:55:48;;;;;;;5.57;4.80;;;8.80;1.00;;;;;;5093586;28;20197;-81
2023/04/20 08:58:14;;;;;;;7.03;4.80;;;8.90;99.90;;;;;;5094839;28;20642;-81
2023/04/20 09:00:48;;;;;;;6.23;4.90;;;9.60;99.90;;;;;;5093366;28;20183;-81
2023/04/20 09:03:14;;;;;;;6.00;4.97;;;9.80;99.90;;;;;;5096999;28;20181;-82
2023/04/20 09:05:40;;;;;;;5.23;4.73;;;9.80;99.90;;;;;;5094838;28;20198;-81
2023/04/20 09:08:07;;;;;;;5.67;4.57;;;9.60;1.00;;;;;;5094580;28;20300;-81
2023/04/20 09:10:43;;;;;;;6.87;4.60;;;9.60;1.00;;;;;;5093358;28;20199;-81
2023/04/20 09:13:20;;;;;;;6.60;4.40;;;9.50;99.90;;;;;;5093046;28;20181;-81
2023/04/20 09:15:46;;;;;;;5.10;4.60;;;9.70;99.90;;;;;;5101741;28;20191;-81
2023/04/20 09:18:13;;;;;;;5.37;4.83;;;9.80;1.00;;;;;;5112673;28;20706;-81
2023/04/20 09:20:39;;;;;;;6.20;4.90;;;10.10;55.90;;;;;;5116456;28;20186;-81
2023/04/20 09:23:12;;;;;;;6.47;4.97;;;10.30;1.00;;;;;;5103832;28;20187;-80
2023/04/20 09:25:39;;;;;;;7.10;5.10;;;10.40;1.00;;;;;;5074488;28;20283;-82
2023/04/20 09:28:05;;;;;;;6.37;4.87;;;10.50;1.00;;;;;;5073734;28;20261;-85
2023/04/20 09:30:37;;;;;;;5.13;4.37;;;10.60;99.90;;;;;;5073853;28;20181;-82
2023/04/20 09:33:03;;;;;;;4.90;4.20;;;11.00;1.00;;;;;;5073309;28;20234;-83
2023/04/20 09:35:30;;;;;;;6.60;4.67;;;11.00;99.90;;;;;;5072634;28;20222;-82
2023/04/20 09:37:55;;;;;;;5.50;4.57;;;10.80;99.90;;;;;;5099663;28;20233;-82
2023/04/20 09:40:23;;;;;;;4.97;4.33;;;10.60;59.10;;;;;;5112865;28;20590;-81
2023/04/20 09:42:51;;;;;;;4.97;4.23;;;10.20;99.90;;;;;;5114605;28;20188;-81
2023/04/20 09:45:17;;;;;;;5.53;4.60;;;10.00;99.90;;;;;;5114743;28;20214;-81
2023/04/20 09:47:44;;;;;;;5.50;4.70;;;9.90;99.90;;;;;;5115626;28;20202;-82
2023/04/20 09:50:11;;;;;;;5.03;4.17;;;9.80;1.00;;;;;;5119371;28;20697;-81
2023/04/20 09:52:37;;;;;;;5.70;4.43;;;9.70;99.90;;;;;;5119439;28;20178;-81
2023/04/20 09:55:08;;;;;;;4.73;4.10;;;9.50;99.90;;;;;;5119089;28;20202;-79
2023/04/20 09:57:35;;;;;;;5.87;4.50;;;9.50;99.90;;;;;;5120716;28;20174;-78
2023/04/20 10:00:01;;;;;;;4.83;4.33;;;9.60;99.90;;;;;;5119472;28;20203;-80
2023/04/20 10:02:26;;;;;;;5.70;4.37;;;9.60;99.90;;;;;;5120413;28;20178;-81
2023/04/20 10:04:53;;;;;;;5.10;4.43;;;9.80;99.90;;;;;;5118819;28;20281;-82
2023/04/20 10:07:26;;;;;;;4.90;4.40;;;10.00;15.30;;;;;;5119318;28;20549;-80
2023/04/20 10:10:06;;;;;;;4.73;4.10;;;10.10;1.00;;;;;;5120353;28;20174;-80
2023/04/20 10:12:35;;;;;;;6.27;4.27;;;10.30;1.00;;;;;;5116876;28;20174;-83
2023/04/20 10:15:00;;;;;;;5.07;4.00;;;10.60;1.00;;;;;;5115113;28;20187;-82
2023/04/20 10:17:30;;;;;;;4.63;4.00;;;10.60;1.00;;;;;;5112827;28;20606;-84
2023/04/20 10:19:56;;;;;;;5.00;3.83;;;11.10;1.00;;;;;;5113051;28;20180;-85
2023/04/20 10:22:31;;;;;;;4.80;3.83;;;11.60;1.00;;;;;;5112010;28;20171;-85
2023/04/20 10:24:57;;;;;;;4.27;3.87;;;11.90;99.90;;;;;;5111934;28;20190;-84
2023/04/20 10:27:23;;;;;;;6.03;3.90;;;12.30;99.90;;;;;;5111727;28;20260;-85
2023/04/20 10:29:49;;;;;;;4.73;4.00;;;12.50;99.90;;;;;;5101464;28;20199;-84
2023/04/20 10:32:25;;;;;;;5.17;4.27;;;12.90;1.00;;;;;;5093264;28;20175;-83
2023/04/20 10:35:06;;;;;;;4.37;3.80;;;12.90;89.30;;;;;;5091761;28;20192;-84
2023/04/20 10:37:32;;;;;;;4.63;4.10;;;13.00;42.70;;;;;;5092915;28;20172;-83
2023/04/20 10:39:58;;;;;;;4.37;3.90;;;12.90;20.20;;;;;;5091401;28;20598;-83
2023/04/20 10:42:25;;;;;;;5.07;3.60;;;12.50;1.00;;;;;;5099886;28;20188;-84
2023/04/20 10:44:53;;;;;;;4.10;3.70;;;12.30;42.60;;;;;;5126197;22;20267;-85
2023/04/20 10:47:33;;;;;;;4.97;4.07;;;12.40;33.40;;;;;;5091780;28;20670;-85
2023/04/20 10:50:09;;;;;;;4.70;4.07;;;12.90;1.00;;;;;;5092069;28;20169;-85
2023/04/20 10:52:37;;;;;;;4.53;4.13;;;13.10;90.70;;;;;;5092345;28;20164;-85
2023/04/20 10:55:05;;;;;;;4.70;4.20;;;13.40;24.70;;;;;;5100272;28;20188;-86
2023/04/20 10:57:32;;;;;;;4.20;3.80;;;13.50;1.00;;;;;;5105275;28;20226;-85
2023/04/20 10:59:59;;;;;;;5.07;4.00;;;13.30;63.30;;;;;;5113669;28;20171;-86
2023/04/20 11:02:24;;;;;;;4.03;3.63;;;13.30;37.20;;;;;;5112069;28;20186;-85
2023/04/20 11:04:52;;;;;;;5.40;4.20;;;13.00;1.00;;;;;;5113863;28;20160;-85
2023/04/20 11:07:19;;;;;;;4.30;3.63;;;13.10;1.00;;;;;;5113539;28;20172;-85
2023/04/20 11:09:51;;;;;;;4.80;4.10;;;12.90;1.00;;;;;;5112921;28;20266;-85
2023/04/20 11:12:17;;;;;;;4.40;4.00;;;12.40;22.00;;;;;;5111833;28;20222;-85
2023/04/20 11:15:01;;;;;;;4.33;3.90;;;12.10;52.10;;;;;;5110679;28;20181;-85
2023/04/20 11:17:34;;;;;;;5.53;3.90;;;11.80;99.90;;;;;;5103074;28;20546;-86
2023/04/20 11:20:15;;;;;;;5.07;3.90;;;12.00;99.90;;;;;;5108626;28;20160;-86
2023/04/20 11:22:42;;;;;;;4.40;3.90;;;12.20;93.10;;;;;;5097596;28;20630;-85
2023/04/20 11:25:09;;;;;;;5.80;4.20;;;12.00;99.90;;;;;;5111478;28;20195;-85
2023/04/20 11:27:36;;;;;;;4.43;4.03;;;11.40;99.90;;;;;;5111555;28;20258;-85
2023/04/20 11:30:06;;;;;;;5.63;4.20;;;11.60;99.90;;;;;;5114619;28;20172;-86
2023/04/20 11:32:34;;;;;;;4.63;3.87;;;11.50;99.90;;;;;;5115660;28;20183;-86
2023/04/20 11:35:04;;;;;;;6.07;4.40;;;11.90;99.90;;;;;;5116891;28;20191;-86
2023/04/20 11:37:30;;;;;;;4.90;3.77;;;12.10;99.90;;;;;;5115731;28;20180;-86
2023/04/20 11:40:00;;;;;;;4.80;4.20;;;11.90;99.90;;;;;;5096686;28;20229;-84
2023/04/20 11:42:26;;;;;;;4.97;4.33;;;11.60;99.90;;;;;;5095914;28;20176;-84
2023/04/20 11:44:51;;;;;;;5.43;4.30;;;11.20;1.00;;;;;;5095868;28;20590;-82
2023/04/20 11:47:17;;;;;;;4.60;4.00;;;11.30;99.90;;;;;;5095044;28;20695;-86
2023/04/20 11:49:43;;;;;;;4.40;3.93;;;11.20;99.90;;;;;;5095638;28;20698;-86
2023/04/20 11:52:08;;;;;;;4.40;4.00;;;11.10;99.90;;;;;;5095104;28;20172;-86
2023/04/20 11:54:34;;;;;;;4.70;4.07;;;10.90;99.90;;;;;;5097782;28;20250;-81
2023/04/20 11:57:00;;;;;;;5.43;4.43;;;10.80;99.90;;;;;;5096784;28;20600;-84
2023/04/20 11:59:25;;;;;;;5.00;3.80;;;10.60;99.90;;;;;;5096478;28;20540;-86
2023/04/20 12:01:51;;;;;;;4.23;3.83;;;10.60;1.00;;;;;;5094139;28;20217;-87
2023/04/20 12:04:16;;;;;;;4.27;3.87;;;10.60;1.00;;;;;;5095292;28;20175;-87
2023/04/20 12:06:42;;;;;;;5.00;4.20;;;10.70;1.00;;;;;;5093941;28;20196;-87
2023/04/20 12:09:08;;;;;;;4.13;3.73;;;10.80;99.90;;;;;;5095357;28;20211;-87
2023/04/20 12:11:33;;;;;;;4.30;3.87;;;11.20;99.90;;;;;;5095315;28;20169;-86
2023/04/20 12:13:59;;;;;;;4.77;3.70;;;11.50;99.90;;;;;;5095335;28;20630;-86
2023/04/20 12:16:25;;;;;;;4.20;3.80;;;11.60;99.90;;;;;;5093803;28;20200;-87
2023/04/20 12:18:50;;;;;;;4.73;4.07;;;11.60;99.90;;;;;;5095593;28;20196;-86
2023/04/20 12:21:16;;;;;;;5.03;4.10;;;11.50;99.90;;;;;;5094995;28;20211;-86
2023/04/20 12:23:43;;;;;;;4.40;4.00;;;11.60;99.90;;;;;;5094543;28;20222;-87
2023/04/20 12:26:09;;;;;;;4.47;3.90;;;11.60;99.90;;;;;;5095828;28;20249;-86
2023/04/20 12:28:34;;;;;;;4.97;4.00;;;11.40;99.90;;;;;;5096271;28;20200;-86
2023/04/20 12:31:01;;;;;;;4.87;4.37;;;11.30;99.90;;;;;;5095100;28;20305;-86
2023/04/20 12:33:26;;;;;;;4.50;4.10;;;10.90;99.90;;;;;;5094874;28;20173;-86
2023/04/20 12:35:52;;;;;;;4.70;4.20;;;10.70;1.00;;;;;;5096051;28;20196;-86
2023/04/20 12:38:17;;;;;;;5.40;4.90;;;10.50;1.00;;;;;;5096452;28;20180;-86
2023/04/20 12:40:43;;;;;;;5.13;4.63;;;10.30;99.90;;;;;;5095031;28;20182;-86
2023/04/20 12:43:09;;;;;;;5.57;4.80;;;10.20;99.90;;;;;;5095953;28;20229;-86
2023/04/20 12:45:35;;;;;;;5.20;4.70;;;10.10;99.90;;;;;;5095463;28;20204;-85
2023/04/20 12:48:00;;;;;;;5.90;5.30;;;10.20;99.90;;;;;;5094792;28;20200;-87
2023/04/20 12:50:26;;;;;;;5.40;4.40;;;10.10;99.90;;;;;;5097938;28;20181;-86
2023/04/20 12:52:51;;;;;;;5.50;4.93;;;10.10;48.00;;;;;;5096599;28;20177;-86